Time;durP1;ratioP1;P1;durP2;ratioP2;P2;SDS_P1;SDS_P2;PMS_P1;PMS_P2;Temp;Humidity;BMP_temperature;BMP_pressure;BME280_temperature;BME280_humidity;BME280_pressure;Samples;Min_cycle;Max_cycle;Signal;HPM_P1;HPM_P2
2022/03/10 00:01:57;;;;;;;15.75;6.43;;;;;;;-2.81;71.13;96245.50;5047467;28;20044;-69
2022/03/10 00:04:22;;;;;;;20.90;6.70;;;;;;;-2.92;71.61;96241.50;5030348;28;20407;-69
2022/03/10 00:06:48;;;;;;;12.98;6.00;;;;;;;-2.94;71.78;96243.44;5029640;28;20228;-69
2022/03/10 00:09:14;;;;;;;19.90;6.45;;;;;;;-2.94;71.73;96247.78;5042641;28;20040;-69
2022/03/10 00:11:40;;;;;;;15.38;6.32;;;;;;;-3.02;72.15;96246.03;5053296;28;20041;-69
2022/03/10 00:14:05;;;;;;;17.48;6.28;;;;;;;-3.09;71.69;96245.91;5043476;28;20049;-69
2022/03/10 00:16:31;;;;;;;13.05;5.75;;;;;;;-3.12;72.60;96248.81;5042983;28;20045;-69
2022/03/10 00:18:57;;;;;;;18.17;6.30;;;;;;;-3.16;73.03;96244.94;5049311;28;20072;-69
2022/03/10 00:21:22;;;;;;;18.45;6.30;;;;;;;-3.16;73.18;96244.94;5041234;28;20106;-69
2022/03/10 00:23:48;;;;;;;15.75;5.90;;;;;;;-3.21;72.71;96242.09;5043159;28;20119;-69
2022/03/10 00:26:13;;;;;;;17.45;6.18;;;;;;;-3.22;72.57;96245.63;5030735;28;20087;-69
2022/03/10 00:28:39;;;;;;;17.48;7.10;;;;;;;-3.25;73.04;96256.25;5029360;28;20466;-69
2022/03/10 00:31:05;;;;;;;13.02;6.15;;;;;;;-3.28;73.06;96251.44;5032261;28;20072;-70
2022/03/10 00:33:30;;;;;;;13.88;6.80;;;;;;;-3.28;73.11;96246.28;5028933;28;20041;-70
2022/03/10 00:35:56;;;;;;;13.20;6.15;;;;;;;-3.37;73.00;96254.00;5032015;28;20037;-69
2022/03/10 00:38:21;;;;;;;16.38;6.40;;;;;;;-3.41;73.54;96247.56;5038379;28;20046;-70
2022/03/10 00:40:47;;;;;;;16.50;6.43;;;;;;;-3.31;73.59;96257.69;5036663;28;20052;-70
2022/03/10 00:43:13;;;;;;;16.58;6.43;;;;;;;-3.26;73.62;96246.91;5047031;28;20123;-70
2022/03/10 00:45:40;;;;;;;15.38;6.45;;;;;;;-3.36;73.39;96255.63;5036866;28;20535;-70
2022/03/10 00:48:05;;;;;;;14.88;5.70;;;;;;;-3.43;73.49;96249.53;5042886;28;20071;-70
2022/03/10 00:50:31;;;;;;;20.30;6.20;;;;;;;-3.46;73.82;96255.00;5052174;28;20339;-70
2022/03/10 00:52:57;;;;;;;15.90;6.40;;;;;;;-3.48;73.91;96251.75;5033818;28;20048;-70
2022/03/10 00:55:22;;;;;;;16.17;6.05;;;;;;;-3.47;74.18;96257.72;5034657;28;20041;-69
2022/03/10 00:57:50;;;;;;;15.30;5.88;;;;;;;-3.49;74.17;96255.31;5047584;28;20040;-69
2022/03/10 01:00:16;;;;;;;14.25;6.15;;;;;;;-3.53;74.05;96254.84;5054437;28;20044;-69
2022/03/10 01:02:42;;;;;;;18.08;6.63;;;;;;;-3.60;74.42;96247.94;5048156;28;20049;-69
2022/03/10 01:05:08;;;;;;;15.45;6.45;;;;;;;-3.63;74.03;96250.81;5032376;28;20037;-69
2022/03/10 01:07:34;;;;;;;15.38;6.70;;;;;;;-3.72;74.53;96248.25;5033934;28;20041;-69
2022/03/10 01:10:01;;;;;;;17.58;6.50;;;;;;;-3.74;74.48;96252.75;5049898;28;20038;-68
2022/03/10 01:12:26;;;;;;;18.70;6.72;;;;;;;-3.72;74.52;96250.00;5032301;28;20037;-69
2022/03/10 01:14:52;;;;;;;14.02;5.82;;;;;;;-3.75;74.61;96256.31;5030622;28;20048;-69
2022/03/10 01:17:18;;;;;;;17.10;6.47;;;;;;;-3.73;74.60;96249.22;5037260;28;20053;-69
2022/03/10 01:19:45;;;;;;;16.60;5.93;;;;;;;-3.77;75.11;96253.06;5046188;28;20033;-69
2022/03/10 01:22:11;;;;;;;19.00;6.38;;;;;;;-3.85;74.98;96248.75;5044587;28;20056;-69
2022/03/10 01:24:37;;;;;;;19.77;7.00;;;;;;;-3.85;75.17;96250.50;5045361;28;20049;-69
2022/03/10 01:27:02;;;;;;;13.38;5.57;;;;;;;-3.83;75.38;96254.50;5028900;28;20071;-69
2022/03/10 01:29:28;;;;;;;16.48;6.18;;;;;;;-3.89;75.62;96249.22;5037260;28;20044;-69
2022/03/10 01:31:53;;;;;;;15.40;6.80;;;;;;;-3.95;75.30;96249.84;5045113;28;20482;-69
2022/03/10 01:34:19;;;;;;;17.27;6.35;;;;;;;-3.96;75.20;96245.69;5029246;28;20120;-69
2022/03/10 01:36:44;;;;;;;16.20;6.45;;;;;;;-4.03;76.13;96243.72;5053207;28;20048;-69
2022/03/10 01:39:10;;;;;;;16.00;6.05;;;;;;;-4.04;75.51;96242.16;5048825;28;20041;-69
2022/03/10 01:41:36;;;;;;;24.63;6.82;;;;;;;-3.98;76.12;96239.88;5045188;28;20049;-69
2022/03/10 01:44:08;;;;;;;17.35;6.20;;;;;;;-4.03;76.11;96243.72;5054148;28;20060;-69
2022/03/10 01:46:34;;;;;;;12.63;5.57;;;;;;;-4.09;76.02;96246.94;5032656;28;20168;-70
2022/03/10 01:49:00;;;;;;;13.95;6.05;;;;;;;-4.14;76.11;96245.81;5031167;28;20534;-69
2022/03/10 01:51:27;;;;;;;11.85;5.25;;;;;;;-4.14;76.65;96246.59;5033400;28;20064;-69
2022/03/10 01:53:53;;;;;;;14.48;5.57;;;;;;;-4.18;76.34;96245.31;5034052;28;20069;-69
2022/03/10 01:56:19;;;;;;;12.77;5.45;;;;;;;-4.19;76.73;96246.28;5043776;28;20111;-69
2022/03/10 01:58:47;;;;;;;17.40;5.90;;;;;;;-4.18;76.59;96242.75;5048626;28;20047;-69
2022/03/10 02:01:14;;;;;;;15.82;6.20;;;;;;;-4.22;76.12;96239.69;5040635;28;20718;-69
2022/03/10 02:03:40;;;;;;;11.93;6.13;;;;;;;-4.30;76.74;96231.97;5049523;28;20056;-69
2022/03/10 02:06:06;;;;;;;12.35;5.38;;;;;;;-4.32;76.94;96233.91;5046094;28;20410;-69
2022/03/10 02:11:19;;;;;;;20.92;5.65;;;;;;;-4.37;77.46;96241.28;5040987;28;20045;-69
2022/03/10 02:13:45;;;;;;;13.93;5.75;;;;;;;-4.37;77.48;96231.00;5048702;28;20493;-69
2022/03/10 02:18:56;;;;;;;13.18;5.78;;;;;;;-4.37;76.85;96242.09;5033960;28;20060;-69
2022/03/10 02:21:23;;;;;;;12.90;5.63;;;;;;;-4.38;77.48;96243.03;5040811;28;20045;-68
2022/03/10 02:23:48;;;;;;;14.07;5.95;;;;;;;-4.37;77.49;96236.94;5041446;28;20037;-69
2022/03/10 02:26:15;;;;;;;14.30;5.53;;;;;;;-4.46;77.34;96226.81;5042346;28;20033;-69
2022/03/10 02:28:42;;;;;;;11.95;5.78;;;;;;;-4.50;77.75;96231.44;5048418;28;20060;-69
2022/03/10 02:31:09;;;;;;;14.90;5.60;;;;;;;-4.50;78.08;96236.59;5047432;28;20037;-69
2022/03/10 02:33:35;;;;;;;11.77;5.47;;;;;;;-4.53;78.05;96236.91;5048257;28;20114;-69
2022/03/10 02:36:01;;;;;;;17.85;6.43;;;;;;;-4.48;77.67;96234.69;5039648;28;20495;-68
2022/03/10 02:38:26;;;;;;;12.07;5.28;;;;;;;-4.58;77.97;96239.16;5036718;28;20037;-68
2022/03/10 02:40:52;;;;;;;16.20;5.88;;;;;;;-4.61;78.52;96239.44;5050730;28;20103;-68
2022/03/10 02:43:19;;;;;;;13.45;6.03;;;;;;;-4.60;78.54;96241.84;5034145;28;20090;-69
2022/03/10 02:45:46;;;;;;;14.13;6.03;;;;;;;-4.54;78.64;96245.56;5048388;28;20052;-69
2022/03/10 02:48:13;;;;;;;13.40;6.00;;;;;;;-4.60;78.83;96241.06;5041051;28;20502;-69
2022/03/10 02:50:39;;;;;;;11.95;5.55;;;;;;;-4.65;78.97;96243.31;5046007;28;20599;-69
2022/03/10 02:53:05;;;;;;;13.80;4.88;;;;;;;-4.61;79.44;96247.13;5031384;28;20037;-69
2022/03/10 02:55:31;;;;;;;12.70;5.10;;;;;;;-4.64;79.41;96242.31;5039498;28;20037;-69
2022/03/10 02:57:57;;;;;;;17.05;6.75;;;;;;;-4.71;78.66;96242.94;5039469;28;20049;-69
2022/03/10 03:00:22;;;;;;;14.68;5.38;;;;;;;-4.68;78.49;96243.59;5046008;28;20112;-69
2022/03/10 03:02:48;;;;;;;14.65;5.53;;;;;;;-4.79;79.52;96248.03;5040945;28;20055;-69
2022/03/10 03:05:15;;;;;;;14.75;5.82;;;;;;;-4.72;78.62;96245.69;5036107;28;20092;-69
2022/03/10 03:07:41;;;;;;;12.40;5.22;;;;;;;-4.68;78.56;96253.84;5045113;28;20064;-69
2022/03/10 03:10:07;;;;;;;16.13;5.80;;;;;;;-4.66;78.33;96246.81;5050263;28;20363;-69
2022/03/10 03:12:33;;;;;;;12.73;5.57;;;;;;;-4.73;78.38;96252.56;5045760;28;20144;-69
2022/03/10 03:15:00;;;;;;;16.02;5.78;;;;;;;-4.70;78.08;96257.41;5044496;28;20041;-69
2022/03/10 03:17:25;;;;;;;17.27;5.88;;;;;;;-4.84;79.19;96260.56;5052325;28;20037;-69
2022/03/10 03:19:52;;;;;;;13.50;6.05;;;;;;;-4.96;79.70;96266.91;5048635;28;20047;-69
2022/03/10 03:22:18;;;;;;;14.85;5.70;;;;;;;-4.78;78.65;96274.56;5030906;28;20435;-68
2022/03/10 03:24:45;;;;;;;12.45;5.05;;;;;;;-4.78;78.17;96277.91;5044603;28;20033;-69
2022/03/10 03:27:13;;;;;;;11.82;5.65;;;;;;;-4.77;79.14;96269.25;5046048;28;20044;-69
2022/03/10 03:29:39;;;;;;;16.40;5.30;;;;;;;-4.81;78.63;96275.66;5045055;28;20044;-69
2022/03/10 03:32:05;;;;;;;16.48;5.60;;;;;;;-4.83;79.60;96284.47;5043496;28;20045;-69
2022/03/10 03:34:31;;;;;;;12.82;5.50;;;;;;;-4.83;78.80;96282.69;5043210;28;20055;-69
2022/03/10 03:36:57;;;;;;;18.45;6.05;;;;;;;-4.88;79.53;96284.94;5030843;28;20045;-69
2022/03/10 03:39:22;;;;;;;12.10;5.55;;;;;;;-4.82;79.10;96284.31;5039939;28;20045;-69
2022/03/10 03:41:48;;;;;;;11.93;5.05;;;;;;;-4.78;79.15;96285.63;5029810;28;20120;-69
2022/03/10 03:44:13;;;;;;;13.30;4.80;;;;;;;-4.80;79.25;96292.66;5030111;28;20055;-69
2022/03/10 03:46:40;;;;;;;12.40;5.00;;;;;;;-4.82;79.01;96294.59;5030644;28;20052;-69
2022/03/10 03:49:07;;;;;;;13.80;5.25;;;;;;;-4.79;79.18;96299.41;5046495;28;20691;-69
2022/03/10 03:51:32;;;;;;;11.10;5.32;;;;;;;-4.83;78.22;96302.44;5039259;28;20418;-69
2022/03/10 03:53:58;;;;;;;12.02;5.30;;;;;;;-4.80;78.55;96302.91;5044764;28;20041;-69
2022/03/10 03:56:24;;;;;;;11.13;4.90;;;;;;;-4.71;78.41;96307.16;5033761;28;20068;-69
2022/03/10 03:58:49;;;;;;;10.75;5.25;;;;;;;-4.82;79.33;96299.72;5030546;28;20045;-69
2022/03/10 04:01:15;;;;;;;9.55;4.88;;;;;;;-4.81;79.10;96305.66;5045513;28;20045;-69
2022/03/10 04:03:40;;;;;;;13.60;5.90;;;;;;;-4.80;79.00;96315.75;5038542;28;20049;-69
2022/03/10 04:06:06;;;;;;;11.90;5.18;;;;;;;-4.81;78.63;96315.91;5029668;28;20049;-68
2022/03/10 04:08:32;;;;;;;11.40;5.18;;;;;;;-4.87;79.09;96307.06;5047717;28;20056;-69
2022/03/10 04:10:58;;;;;;;14.07;5.43;;;;;;;-4.92;78.63;96317.00;5041804;28;20095;-69
2022/03/10 04:13:24;;;;;;;18.02;5.65;;;;;;;-4.92;78.59;96314.44;5041742;28;20470;-70
2022/03/10 04:15:51;;;;;;;12.93;5.53;;;;;;;-4.87;78.94;96317.34;5038606;28;20096;-69
2022/03/10 04:18:18;;;;;;;13.00;5.90;;;;;;;-4.97;78.94;96319.22;5028427;28;20153;-69
2022/03/10 04:20:44;;;;;;;14.13;5.20;;;;;;;-4.99;79.03;96323.69;5032030;28;20037;-69
2022/03/10 04:23:11;;;;;;;14.73;5.22;;;;;;;-5.00;78.82;96327.22;5033213;28;20532;-69
2022/03/10 04:25:37;;;;;;;12.93;5.15;;;;;;;-5.14;79.81;96331.94;5045912;28;20045;-69
2022/03/10 04:28:04;;;;;;;13.50;5.93;;;;;;;-5.15;79.99;96335.47;5054414;28;20048;-69
2022/03/10 04:30:32;;;;;;;13.50;5.85;;;;;;;-5.19;79.45;96329.03;5038157;28;20099;-69
2022/03/10 04:32:59;;;;;;;13.25;5.13;;;;;;;-5.28;80.23;96335.06;5038343;28;20044;-69
2022/03/10 04:35:25;;;;;;;13.02;5.78;;;;;;;-5.31;80.19;96335.38;5030228;28;20044;-69
2022/03/10 04:37:52;;;;;;;14.80;5.40;;;;;;;-5.31;80.48;96335.38;5029770;28;20065;-69
2022/03/10 04:40:18;;;;;;;13.63;5.35;;;;;;;-5.32;80.50;96326.84;5031772;28;20491;-69
2022/03/10 04:42:43;;;;;;;13.05;5.40;;;;;;;-5.40;81.33;96327.59;5071379;28;20049;-69
2022/03/10 04:45:09;;;;;;;15.63;5.63;;;;;;;-5.49;81.26;96338.72;5036322;28;20044;-69
2022/03/10 04:47:36;;;;;;;12.40;5.18;;;;;;;-5.58;81.82;96340.44;5046105;28;20045;-69
2022/03/10 04:50:03;;;;;;;15.02;5.88;;;;;;;-5.56;82.16;96342.84;5046614;28;20041;-69
2022/03/10 04:52:29;;;;;;;15.90;5.43;;;;;;;-5.62;82.30;96344.25;5039837;28;20434;-69
2022/03/10 04:54:54;;;;;;;12.90;5.53;;;;;;;-5.59;82.41;96338.03;5037860;28;20045;-69
2022/03/10 04:57:21;;;;;;;10.68;4.80;;;;;;;-5.52;82.14;96344.16;5036177;28;20048;-68
2022/03/10 04:59:46;;;;;;;12.68;5.75;;;;;;;-5.55;81.57;96339.34;5040857;28;20073;-69
2022/03/10 05:02:12;;;;;;;11.98;5.18;;;;;;;-5.55;81.79;96334.22;5040939;28;20084;-69
2022/03/10 05:04:38;;;;;;;13.27;5.55;;;;;;;-5.56;81.48;96342.84;5041910;28;20045;-69
2022/03/10 05:07:04;;;;;;;11.77;5.43;;;;;;;-5.69;81.87;96332.16;5047814;28;20178;-70
2022/03/10 05:09:30;;;;;;;16.98;5.82;;;;;;;-5.71;82.63;96344.34;5044919;28;20036;-69
2022/03/10 05:11:56;;;;;;;11.85;5.47;;;;;;;-5.72;83.25;96343.50;5046445;28;20041;-70
2022/03/10 05:14:21;;;;;;;11.38;5.03;;;;;;;-5.75;82.33;96342.06;5041681;28;20052;-69
2022/03/10 05:16:47;;;;;;;11.27;5.00;;;;;;;-5.75;81.61;96331.81;5051652;28;20087;-69
2022/03/10 05:19:13;;;;;;;12.60;5.57;;;;;;;-5.79;82.46;96327.94;5043570;28;20104;-69
2022/03/10 05:21:38;;;;;;;13.55;5.35;;;;;;;-5.74;82.19;96335.97;5032995;28;20041;-69
2022/03/10 05:24:04;;;;;;;11.55;4.80;;;;;;;-5.79;82.47;96327.94;5044423;28;20064;-69
2022/03/10 05:26:30;;;;;;;19.05;5.57;;;;;;;-5.85;82.17;96328.50;5048869;28;20068;-69
2022/03/10 05:28:56;;;;;;;12.88;5.25;;;;;;;-5.93;82.32;96328.44;5065509;28;20065;-69
2022/03/10 05:31:21;;;;;;;12.55;5.10;;;;;;;-5.99;83.05;96326.47;5047678;28;20048;-69
2022/03/10 05:33:47;;;;;;;15.95;5.18;;;;;;;-6.01;82.96;96328.38;5035921;28;20091;-69
2022/03/10 05:36:12;;;;;;;13.73;5.28;;;;;;;-5.99;82.70;96331.59;5049831;28;20102;-69
2022/03/10 05:38:38;;;;;;;20.27;5.75;;;;;;;-5.99;82.76;96323.91;5051841;28;20116;-70
2022/03/10 05:41:05;;;;;;;12.82;5.28;;;;;;;-5.99;82.88;96331.59;5037198;28;20049;-70
2022/03/10 05:43:31;;;;;;;26.98;5.82;;;;;;;-6.00;83.41;96330.00;5037376;28;20052;-70
2022/03/10 05:45:57;;;;;;;12.98;5.60;;;;;;;-5.97;83.02;96330.47;5052284;28;20037;-69
2022/03/10 05:48:23;;;;;;;12.00;5.75;;;;;;;-5.97;83.42;96330.47;5048781;28;20134;-68
2022/03/10 05:50:48;;;;;;;14.45;5.60;;;;;;;-5.94;83.74;96337.06;5036586;28;20041;-69
2022/03/10 05:53:14;;;;;;;12.35;5.07;;;;;;;-5.89;84.11;96332.28;5041247;28;20495;-69
2022/03/10 05:55:40;;;;;;;18.52;5.90;;;;;;;-5.94;84.71;96331.94;5044831;28;20041;-69
2022/03/10 05:58:05;;;;;;;16.20;5.72;;;;;;;-5.86;84.19;96337.16;5042957;28;20037;-69
2022/03/10 06:00:31;;;;;;;15.55;5.93;;;;;;;-5.83;84.22;96342.00;5049539;28;20042;-69
2022/03/10 06:02:57;;;;;;;14.82;6.20;;;;;;;-5.83;84.13;96341.16;5036035;28;20106;-68
2022/03/10 06:05:22;;;;;;;16.27;6.07;;;;;;;-5.86;84.23;96331.22;5059350;28;20510;-68
2022/03/10 06:07:48;;;;;;;15.82;6.57;;;;;;;-5.80;84.21;96326.31;5051085;28;20049;-69
2022/03/10 06:10:14;;;;;;;12.35;5.82;;;;;;;-5.65;83.58;96338.63;5038210;28;20472;-68
2022/03/10 06:12:39;;;;;;;15.93;5.90;;;;;;;-5.61;83.05;96334.81;5032003;28;20046;-67
2022/03/10 06:15:07;;;;;;;21.10;7.07;;;;;;;-5.57;83.56;96338.69;5047071;28;20107;-67
2022/03/10 06:17:33;;;;;;;16.92;6.70;;;;;;;-5.49;83.59;96332.81;5045476;28;20053;-67
2022/03/10 06:19:59;;;;;;;21.85;6.40;;;;;;;-5.54;82.78;96340.97;5055920;28;20041;-67
2022/03/10 06:22:29;;;;;;;23.10;6.22;;;;;;;-5.55;83.09;96344.47;5030408;28;20260;-67
2022/03/10 06:24:55;;;;;;;19.38;6.55;;;;;;;-5.52;84.07;96349.28;5054695;28;20059;-67
2022/03/10 06:27:22;;;;;;;15.00;5.85;;;;;;;-5.42;84.17;96344.88;5067879;28;20040;-67
2022/03/10 06:29:48;;;;;;;17.60;6.43;;;;;;;-5.25;83.45;96345.03;5042319;28;20044;-67
2022/03/10 06:32:19;;;;;;;16.38;6.13;;;;;;;-5.12;83.54;96348.00;5050196;28;20041;-67
2022/03/10 06:34:46;;;;;;;19.17;6.75;;;;;;;-5.01;82.78;96356.41;5048406;28;20150;-67
2022/03/10 06:37:12;;;;;;;20.60;6.35;;;;;;;-4.99;82.92;96359.63;5037499;28;20073;-68
2022/03/10 06:39:38;;;;;;;19.10;6.50;;;;;;;-4.91;82.74;96367.41;5050727;28;20533;-68
2022/03/10 06:42:04;;;;;;;19.70;7.38;;;;;;;-4.89;82.77;96360.34;5043348;28;20041;-68
2022/03/10 06:44:30;;;;;;;22.40;7.30;;;;;;;-4.75;82.95;96362.34;5044507;28;20044;-68
2022/03/10 06:46:56;;;;;;;18.33;7.22;;;;;;;-4.33;81.55;96354.84;5049838;28;20553;-69
2022/03/10 06:49:21;;;;;;;13.82;6.25;;;;;;;-4.06;80.17;96346.88;5046709;28;20049;-68
2022/03/10 06:51:48;;;;;;;25.38;6.72;;;;;;;-4.06;80.37;96346.88;5037978;28;20491;-68
2022/03/10 06:54:15;;;;;;;15.40;6.75;;;;;;;-3.98;80.03;96347.88;5045283;28;20094;-68
2022/03/10 06:56:41;;;;;;;19.65;7.32;;;;;;;-3.87;79.97;96345.00;5047560;28;20041;-67
2022/03/10 06:59:06;;;;;;;21.52;7.18;;;;;;;-3.59;78.38;96348.13;5035603;28;20049;-69
2022/03/10 07:01:32;;;;;;;22.83;6.97;;;;;;;-3.59;78.65;96347.28;5041240;28;20057;-71
2022/03/10 07:03:59;;;;;;;17.63;6.90;;;;;;;-3.40;77.93;96336.69;5046599;28;20037;-75
2022/03/10 07:06:25;;;;;;;16.85;6.72;;;;;;;-3.18;76.83;96339.56;5050791;28;20045;-70
2022/03/10 07:08:51;;;;;;;19.25;6.80;;;;;;;-3.15;76.65;96334.09;5047899;28;20044;-69
2022/03/10 07:11:17;;;;;;;25.33;7.40;;;;;;;-3.17;77.11;96336.03;5047835;28;20033;-70
2022/03/10 07:13:42;;;;;;;19.08;7.35;;;;;;;-3.30;78.10;96331.38;5041640;28;20041;-68
2022/03/10 07:16:09;;;;;;;22.15;6.85;;;;;;;-3.39;78.39;96333.16;5047429;28;20095;-69
2022/03/10 07:18:34;;;;;;;21.02;6.93;;;;;;;-3.46;78.96;96332.19;5042554;28;20037;-71
2022/03/10 07:21:00;;;;;;;17.90;7.38;;;;;;;-3.46;79.38;96331.38;5039587;28;20128;-69
2022/03/10 07:23:25;;;;;;;19.65;8.20;;;;;;;-3.42;79.48;96333.50;5045656;28;20461;-69
2022/03/10 07:25:51;;;;;;;19.20;7.60;;;;;;;-3.37;79.51;96333.78;5030715;28;20049;-69
2022/03/10 07:28:16;;;;;;;20.02;6.95;;;;;;;-3.21;79.78;96334.75;5036467;28;20129;-69
2022/03/10 07:30:42;;;;;;;21.73;8.00;;;;;;;-3.22;79.72;96338.28;5053712;28;20045;-70
2022/03/10 07:33:07;;;;;;;17.83;7.20;;;;;;;-3.02;79.97;96339.53;5045346;28;20041;-69
2022/03/10 07:35:33;;;;;;;26.45;8.07;;;;;;;-3.02;79.51;96334.41;5030225;28;20583;-70
2022/03/10 07:37:59;;;;;;;23.67;7.35;;;;;;;-2.85;79.35;96335.19;5031838;28;20094;-69
2022/03/10 07:40:26;;;;;;;16.63;6.90;;;;;;;-2.36;77.21;96344.53;5040291;28;20053;-69
2022/03/10 07:42:51;;;;;;;17.77;7.55;;;;;;;-2.46;76.66;96333.63;5046918;28;20049;-70
2022/03/10 07:45:17;;;;;;;18.15;7.20;;;;;;;-2.47;77.74;96342.31;5040157;28;20044;-70
2022/03/10 07:47:43;;;;;;;16.15;7.03;;;;;;;-2.29;76.78;96334.38;5049458;28;20041;-70
2022/03/10 07:50:09;;;;;;;19.25;7.28;;;;;;;-2.22;76.29;96324.19;5040680;28;20403;-71
2022/03/10 07:52:35;;;;;;;18.05;7.80;;;;;;;-2.20;76.47;96337.72;5037206;28;20052;-72
2022/03/10 07:55:01;;;;;;;24.77;8.07;;;;;;;-1.93;75.50;96329.50;5039963;28;20041;-68
2022/03/10 07:57:26;;;;;;;16.15;6.97;;;;;;;-1.72;75.62;96335.84;5032612;28;20083;-69
2022/03/10 07:59:52;;;;;;;20.83;7.57;;;;;;;-1.71;75.34;96327.13;5051527;28;20053;-69
2022/03/10 08:02:18;;;;;;;24.25;7.80;;;;;;;-1.58;75.24;96324.78;5040071;28;20045;-69
2022/03/10 08:04:44;;;;;;;21.08;8.32;;;;;;;-0.95;72.63;96318.59;5046319;28;20111;-69
2022/03/10 08:07:10;;;;;;;19.13;8.30;;;;;;;-0.55;70.93;96319.97;5045109;28;20043;-69
2022/03/10 08:09:36;;;;;;;20.73;8.25;;;;;;;-0.68;70.38;96312.00;5035719;28;20469;-69
2022/03/10 08:12:03;;;;;;;17.42;7.78;;;;;;;-0.78;71.45;96311.47;5036172;28;20077;-69
2022/03/10 08:14:30;;;;;;;21.50;7.50;;;;;;;-0.87;72.10;96306.38;5036704;28;20049;-69
2022/03/10 08:16:55;;;;;;;19.25;7.15;;;;;;;-0.62;71.48;96308.69;5046894;28;20045;-69
2022/03/10 08:19:21;;;;;;;16.10;6.85;;;;;;;-0.21;69.54;96303.06;5038568;28;20105;-68
2022/03/10 08:21:48;;;;;;;18.92;7.38;;;;;;;0.57;66.50;96314.59;5033043;28;20057;-69
2022/03/10 08:24:14;;;;;;;18.45;7.70;;;;;;;0.61;66.92;96306.25;5035943;28;20045;-69
2022/03/10 08:26:40;;;;;;;28.15;8.40;;;;;;;0.46;67.08;96314.09;5042736;28;20041;-69
2022/03/10 08:29:06;;;;;;;22.55;7.25;;;;;;;0.28;67.86;96300.78;5047048;28;20060;-69
2022/03/10 08:31:32;;;;;;;19.75;7.45;;;;;;;0.90;65.10;96308.88;5047281;28;20057;-69
2022/03/10 08:33:58;;;;;;;17.92;7.35;;;;;;;1.60;63.34;96314.88;5043655;28;20411;-69
2022/03/10 08:36:23;;;;;;;21.98;7.78;;;;;;;1.43;63.75;96311.00;5044761;28;20096;-69
2022/03/10 08:38:49;;;;;;;16.98;7.20;;;;;;;1.76;62.28;96303.38;5038167;28;20040;-69
2022/03/10 08:41:14;;;;;;;15.15;7.00;;;;;;;2.31;60.22;96302.53;5049202;28;20041;-69
2022/03/10 08:43:40;;;;;;;26.88;7.65;;;;;;;2.33;59.97;96292.72;5076423;28;20051;-69
2022/03/10 08:46:06;;;;;;;19.55;7.57;;;;;;;2.00;61.44;96298.69;5044715;28;20043;-69
2022/03/10 08:48:32;;;;;;;16.73;6.85;;;;;;;1.86;61.61;96297.81;5042502;28;20073;-70
2022/03/10 08:50:59;;;;;;;18.02;7.50;;;;;;;2.11;60.33;96298.09;5043389;28;20484;-71
2022/03/10 08:53:25;;;;;;;16.30;7.28;;;;;;;2.29;60.64;96294.94;5042363;28;20041;-70
2022/03/10 08:55:51;;;;;;;23.27;7.32;;;;;;;2.12;61.31;96291.91;5037450;28;20509;-70
2022/03/10 08:58:18;;;;;;;17.65;7.45;;;;;;;2.55;59.00;96295.97;5029293;28;20124;-70
2022/03/10 09:00:43;;;;;;;19.27;7.55;;;;;;;2.31;59.74;96289.53;5029137;28;20045;-71
2022/03/10 09:03:09;;;;;;;15.38;6.88;;;;;;;2.71;59.07;96276.59;5029184;28;20042;-71
2022/03/10 09:05:36;;;;;;;14.73;6.55;;;;;;;2.71;58.31;96274.78;5053618;28;20395;-71
2022/03/10 09:08:03;;;;;;;15.18;6.70;;;;;;;3.26;56.75;96271.91;5042835;28;20423;-71
2022/03/10 09:10:29;;;;;;;14.52;6.40;;;;;;;2.98;57.49;96279.19;5053730;28;20754;-72
2022/03/10 09:12:56;;;;;;;14.25;6.30;;;;;;;2.89;57.91;96268.97;5040272;28;20495;-70
2022/03/10 09:15:22;;;;;;;14.77;6.82;;;;;;;2.96;57.66;96261.19;5029498;28;20041;-72
2022/03/10 09:17:48;;;;;;;13.85;6.68;;;;;;;3.07;57.61;96267.53;5042099;28;20047;-69
2022/03/10 09:20:14;;;;;;;14.70;6.75;;;;;;;4.12;54.07;96263.97;5046003;28;20044;-69
2022/03/10 09:22:41;;;;;;;14.38;6.35;;;;;;;4.16;54.90;96259.94;5040540;28;20131;-69
2022/03/10 09:25:08;;;;;;;19.83;7.07;;;;;;;4.53;53.70;96265.31;5032779;28;20524;-70
2022/03/10 09:27:38;;;;;;;19.02;7.28;;;;;;;4.62;53.39;96258.00;5043529;28;20095;-70
2022/03/10 09:30:07;;;;;;;15.90;6.38;;;;;;;5.10;51.27;96257.41;5048663;28;20494;-70
2022/03/10 09:32:38;;;;;;;16.45;7.20;;;;;;;5.63;49.99;96263.88;5047530;28;20048;-72
2022/03/10 09:35:07;;;;;;;12.52;6.13;;;;;;;5.49;50.12;96258.00;5041080;28;20040;-71
2022/03/10 09:37:33;;;;;;;15.82;6.20;;;;;;;5.66;49.69;96268.66;5048926;28;20045;-71
2022/03/10 09:39:59;;;;;;;13.25;6.85;;;;;;;5.29;49.44;96263.44;5032248;28;20036;-69
2022/03/10 09:42:29;;;;;;;11.95;5.72;;;;;;;5.54;50.26;96260.72;5045220;28;20121;-73
2022/03/10 09:45:07;;;;;;;14.65;6.07;;;;;;;5.84;49.13;96253.97;5035953;28;20102;-71
2022/03/10 09:47:36;;;;;;;14.13;6.50;;;;;;;6.46;46.71;96260.78;5028595;28;20111;-72
2022/03/10 09:50:07;;;;;;;21.55;7.28;;;;;;;6.22;48.02;96260.72;5037239;28;20112;-71
2022/03/10 09:52:33;;;;;;;10.82;6.22;;;;;;;6.01;48.59;96260.19;5038527;28;20423;-70
2022/03/10 09:54:59;;;;;;;16.20;6.63;;;;;;;6.22;48.86;96260.72;5036964;28;20033;-70
2022/03/10 09:57:25;;;;;;;14.00;6.57;;;;;;;6.24;47.43;96258.69;5037785;28;20160;-70
2022/03/10 09:59:53;;;;;;;15.45;6.85;;;;;;;6.74;46.55;96268.78;5044478;28;20095;-70
2022/03/10 10:02:19;;;;;;;15.88;7.60;;;;;;;6.61;46.88;96268.19;5039314;28;20069;-70
2022/03/10 10:04:48;;;;;;;16.60;6.65;;;;;;;6.71;46.93;96258.78;5045579;28;20060;-69
2022/03/10 10:07:14;;;;;;;29.58;8.02;;;;;;;7.08;45.12;96248.13;5055375;28;20037;-69
2022/03/10 10:09:47;;;;;;;20.02;7.32;;;;;;;7.37;42.83;96256.03;5043927;28;20521;-70
2022/03/10 10:12:14;;;;;;;14.65;6.80;;;;;;;7.65;44.68;96257.13;5048242;28;20577;-71
2022/03/10 10:14:46;;;;;;;22.67;7.53;;;;;;;7.78;43.86;96254.22;5046147;28;20045;-70
2022/03/10 10:17:12;;;;;;;14.90;7.18;;;;;;;8.68;40.93;96258.97;5062382;28;20036;-70
2022/03/10 10:19:40;;;;;;;17.38;7.03;;;;;;;9.92;38.59;96250.09;5059418;28;20455;-69
2022/03/10 10:22:09;;;;;;;14.07;6.72;;;;;;;10.58;36.70;96252.59;5062661;28;20079;-69
2022/03/10 10:24:35;;;;;;;16.65;7.28;;;;;;;11.21;35.80;96255.41;5047970;28;20041;-70
2022/03/10 10:27:18;;;;;;;15.13;6.95;;;;;;;11.15;36.53;96245.91;5044330;28;20050;-70
2022/03/10 10:29:45;;;;;;;16.33;7.13;;;;;;;12.13;34.88;96241.84;5037077;28;20470;-70
2022/03/10 10:32:11;;;;;;;17.10;7.45;;;;;;;12.73;32.37;96240.56;5043136;28;20048;-71
2022/03/10 10:34:36;;;;;;;21.73;8.40;;;;;;;12.98;33.56;96243.19;5034835;28;20037;-70
2022/03/10 10:37:02;;;;;;;17.92;8.20;;;;;;;11.94;33.64;96241.53;5038096;28;20049;-70
2022/03/10 10:39:27;;;;;;;15.38;7.07;;;;;;;13.42;31.00;96235.72;5043580;28;20490;-70
2022/03/10 10:41:53;;;;;;;18.77;7.25;;;;;;;12.84;29.85;96236.84;5045667;28;20045;-70
2022/03/10 10:44:21;;;;;;;20.15;7.53;;;;;;;12.43;31.81;96240.28;5048547;28;20503;-72
2022/03/10 10:46:53;;;;;;;22.73;7.63;;;;;;;13.33;31.48;96233.63;5049369;28;20107;-73
2022/03/10 10:49:22;;;;;;;21.05;6.65;;;;;;;13.65;31.20;96235.13;5047426;28;20055;-70
2022/03/10 10:51:51;;;;;;;14.52;6.72;;;;;;;14.12;29.27;96232.25;5050085;28;20387;-70
2022/03/10 10:54:29;;;;;;;13.18;6.80;;;;;;;14.65;28.78;96226.34;5053119;28;20045;-72
2022/03/10 10:57:05;;;;;;;18.25;7.10;;;;;;;14.42;29.36;96220.66;5059538;28;20043;-72
2022/03/10 10:59:43;;;;;;;16.45;7.60;;;;;;;13.13;31.06;96215.16;5054373;28;20048;-72
2022/03/10 11:02:10;;;;;;;13.85;6.80;;;;;;;15.17;27.81;96218.72;5050602;28;20060;-72
2022/03/10 11:04:37;;;;;;;11.88;6.25;;;;;;;16.57;24.72;96199.94;5043555;28;20041;-71
2022/03/10 11:07:04;;;;;;;12.50;6.78;;;;;;;15.82;26.59;96201.56;5034142;28;20067;-70
2022/03/10 11:09:33;;;;;;;13.75;7.38;;;;;;;14.56;27.27;96202.28;5044349;28;20040;-69
2022/03/10 11:11:59;;;;;;;17.10;8.13;;;;;;;13.85;28.63;96191.91;5036952;28;20044;-70
2022/03/10 11:14:25;;;;;;;16.35;7.65;;;;;;;13.73;28.33;96198.59;5042954;28;20037;-70
2022/03/10 11:16:52;;;;;;;12.40;6.78;;;;;;;14.92;27.28;96196.69;5050335;28;20532;-70
2022/03/10 11:19:25;;;;;;;17.52;7.65;;;;;;;14.85;26.56;96189.06;5047226;28;20727;-71
2022/03/10 11:22:15;;;;;;;14.70;6.90;;;;;;;16.83;24.69;96180.91;5038936;28;20052;-69
2022/03/10 11:25:22;;;;;;;13.95;7.57;;;;;;;17.18;24.04;96170.72;5043879;28;20057;-72
2022/03/10 11:27:59;;;;;;;14.68;7.22;;;;;;;16.58;24.74;96177.63;5005576;28;20615;-71
2022/03/10 11:30:27;;;;;;;19.27;8.38;;;;;;;17.26;23.49;96168.16;5008416;28;20918;-70